Time;durP1;ratioP1;P1;durP2;ratioP2;P2;SDS_P1;SDS_P2;PMS_P1;PMS_P2;Temp;Humidity;BMP_temperature;BMP_pressure;BME280_temperature;BME280_humidity;BME280_pressure;Samples;Min_cycle;Max_cycle;Signal;HPM_P1;HPM_P2
2023/06/22 00:01:18;;;;;;;7.00;5.43;;;20.30;99.90;;;;;;4946023;28;20477;-75
2023/06/22 00:03:44;;;;;;;7.28;5.82;;;20.30;99.90;;;;;;4950057;28;20839;-74
2023/06/22 00:06:11;;;;;;;7.15;5.82;;;20.40;99.90;;;;;;4941448;28;20411;-75
2023/06/22 00:08:37;;;;;;;8.02;5.97;;;20.40;99.90;;;;;;4975410;28;20974;-75
2023/06/22 00:11:03;;;;;;;8.15;5.72;;;20.40;99.90;;;;;;4949730;28;21121;-75
2023/06/22 00:13:30;;;;;;;9.18;5.72;;;20.40;99.90;;;;;;4951625;28;20418;-75
2023/06/22 00:15:56;;;;;;;7.43;5.80;;;20.40;99.90;;;;;;4955042;28;20417;-76
2023/06/22 00:18:27;;;;;;;7.90;5.80;;;20.40;99.90;;;;;;4949161;28;20417;-75
2023/06/22 00:20:58;;;;;;;7.00;5.80;;;20.40;99.90;;;;;;5034562;28;20416;-75
2023/06/22 00:23:25;;;;;;;8.10;5.55;;;20.40;99.90;;;;;;4947737;28;20430;-76
2023/06/22 00:25:52;;;;;;;8.98;5.90;;;20.40;99.90;;;;;;4947929;28;20422;-76
2023/06/22 00:28:18;;;;;;;8.93;5.95;;;20.30;99.90;;;;;;4954782;28;20452;-75
2023/06/22 00:30:45;;;;;;;8.75;5.70;;;20.20;99.90;;;;;;4948568;28;20509;-76
2023/06/22 00:33:11;;;;;;;9.23;5.90;;;20.20;99.90;;;;;;4954016;28;21407;-75
2023/06/22 00:35:41;;;;;;;7.55;5.82;;;20.20;99.90;;;;;;4959369;28;20430;-75
2023/06/22 00:38:08;;;;;;;8.43;5.30;;;20.20;99.90;;;;;;4960625;28;20481;-75
2023/06/22 00:40:34;;;;;;;5.55;4.47;;;20.10;99.90;;;;;;4957736;28;20515;-76
2023/06/22 00:43:01;;;;;;;6.35;4.50;;;19.90;99.90;;;;;;4950823;28;20425;-75
2023/06/22 00:45:27;;;;;;;6.38;4.28;;;19.80;99.90;;;;;;4948928;28;20428;-75
2023/06/22 00:47:57;;;;;;;7.43;4.47;;;19.80;99.90;;;;;;4947741;28;20503;-76
2023/06/22 00:50:28;;;;;;;5.18;4.35;;;19.70;99.90;;;;;;4949575;28;20427;-75
2023/06/22 00:53:08;;;;;;;4.97;4.15;;;19.60;99.90;;;;;;4946350;28;20426;-75
2023/06/22 00:55:46;;;;;;;6.20;4.50;;;19.60;99.90;;;;;;4950825;28;20542;-75
2023/06/22 00:58:14;;;;;;;4.57;4.15;;;19.60;99.90;;;;;;4959281;28;20440;-75
2023/06/22 01:00:41;;;;;;;6.10;4.10;;;19.60;99.90;;;;;;4947242;28;20432;-74
2023/06/22 01:03:08;;;;;;;5.35;4.05;;;19.60;99.90;;;;;;4945003;28;20433;-75
2023/06/22 01:05:37;;;;;;;4.90;4.03;;;19.70;99.90;;;;;;4951153;28;20460;-75
2023/06/22 01:08:22;;;;;;;5.05;4.00;;;19.80;99.90;;;;;;4952449;28;20408;-76
2023/06/22 01:11:05;;;;;;;4.93;4.07;;;19.80;99.90;;;;;;4951303;28;20519;-76
2023/06/22 01:13:50;;;;;;;5.45;4.20;;;19.90;99.90;;;;;;4952604;28;20498;-76
2023/06/22 01:16:42;;;;;;;6.10;3.73;;;19.90;99.90;;;;;;4948619;28;20424;-76
2023/06/22 01:19:41;;;;;;;4.20;3.80;;;19.90;99.90;;;;;;4938642;28;20422;-77
2023/06/22 01:22:15;;;;;;;5.43;3.65;;;19.60;99.90;;;;;;4976187;28;20414;-76
2023/06/22 01:25:17;;;;;;;7.13;4.30;;;19.40;99.90;;;;;;4937631;28;21397;-77
2023/06/22 01:28:04;;;;;;;4.45;3.88;;;19.40;99.90;;;;;;4948277;28;21047;-77
2023/06/22 01:30:33;;;;;;;5.30;3.83;;;19.40;99.90;;;;;;4953694;28;20432;-77
2023/06/22 01:33:05;;;;;;;5.32;3.97;;;19.40;99.90;;;;;;4948312;28;20432;-77
2023/06/22 01:35:32;;;;;;;5.57;4.10;;;19.40;99.90;;;;;;4954693;28;20507;-76
2023/06/22 01:37:59;;;;;;;5.30;3.53;;;19.40;99.90;;;;;;4951073;28;20442;-76
2023/06/22 01:40:26;;;;;;;5.82;3.97;;;19.40;99.90;;;;;;4945777;28;20433;-75
2023/06/22 01:42:54;;;;;;;4.40;3.70;;;19.50;99.90;;;;;;4950525;28;20421;-76
2023/06/22 01:45:21;;;;;;;5.57;4.10;;;19.50;99.90;;;;;;4973933;28;21015;-76
2023/06/22 01:47:48;;;;;;;6.20;4.10;;;19.60;99.90;;;;;;4947486;28;20426;-75
2023/06/22 01:50:15;;;;;;;4.57;4.03;;;19.60;99.90;;;;;;4950197;28;20420;-75
2023/06/22 01:52:41;;;;;;;4.97;3.70;;;19.70;99.90;;;;;;4953249;28;20529;-75
2023/06/22 01:55:08;;;;;;;4.90;4.10;;;19.70;99.90;;;;;;4935736;28;20420;-75
2023/06/22 01:57:35;;;;;;;4.47;3.80;;;19.70;99.90;;;;;;4946028;28;21062;-76
2023/06/22 02:00:06;;;;;;;5.05;3.90;;;19.70;99.90;;;;;;4942448;28;21188;-76
2023/06/22 02:03:09;;;;;;;4.70;3.88;;;19.70;99.90;;;;;;4958033;28;20845;-76
2023/06/22 02:05:46;;;;;;;6.95;3.80;;;19.70;99.90;;;;;;4942263;28;20430;-75
2023/06/22 02:08:40;;;;;;;4.50;3.63;;;19.80;99.90;;;;;;4951496;28;20565;-76
2023/06/22 02:11:09;;;;;;;7.18;4.20;;;19.80;99.90;;;;;;4949135;28;20432;-76
2023/06/22 02:13:38;;;;;;;5.55;3.42;;;19.90;99.90;;;;;;4957619;28;20433;-74
2023/06/22 02:16:04;;;;;;;4.75;3.60;;;19.90;99.90;;;;;;4951071;28;20429;-79
2023/06/22 02:18:30;;;;;;;4.25;3.53;;;19.80;99.90;;;;;;4956163;28;20410;-75
2023/06/22 02:20:57;;;;;;;5.93;3.70;;;19.80;99.90;;;;;;4953113;28;20498;-74
2023/06/22 02:23:23;;;;;;;5.35;3.40;;;19.70;99.90;;;;;;4957139;28;20428;-75
2023/06/22 02:25:50;;;;;;;4.32;3.47;;;19.70;99.90;;;;;;4954116;28;20424;-75
2023/06/22 02:28:16;;;;;;;4.88;3.50;;;19.70;99.90;;;;;;4942124;28;20420;-74
2023/06/22 02:30:42;;;;;;;4.55;3.63;;;19.60;99.90;;;;;;4947399;28;20846;-76
2023/06/22 02:33:08;;;;;;;4.82;3.60;;;19.60;99.90;;;;;;4946355;28;20429;-75
2023/06/22 02:35:35;;;;;;;4.13;3.50;;;19.60;99.90;;;;;;4954485;28;20503;-75
2023/06/22 02:38:03;;;;;;;4.75;3.55;;;19.60;99.90;;;;;;4945642;28;20848;-75
2023/06/22 02:40:30;;;;;;;4.30;3.30;;;19.60;99.90;;;;;;4948632;28;20525;-74
2023/06/22 02:43:01;;;;;;;4.53;3.50;;;19.60;99.90;;;;;;4957045;28;20477;-75
2023/06/22 02:45:28;;;;;;;3.85;3.40;;;19.60;99.90;;;;;;4948875;28;20421;-75
2023/06/22 02:47:55;;;;;;;4.97;3.50;;;19.60;99.90;;;;;;4941836;28;20425;-76
2023/06/22 02:50:22;;;;;;;4.85;3.50;;;19.60;99.90;;;;;;4956123;28;20416;-75
2023/06/22 02:52:48;;;;;;;4.32;3.55;;;19.60;99.90;;;;;;4948334;28;20975;-75
2023/06/22 02:55:14;;;;;;;5.40;3.50;;;19.60;99.90;;;;;;4953541;28;20529;-75
2023/06/22 02:57:43;;;;;;;4.70;3.42;;;19.70;99.90;;;;;;4975663;28;20522;-75
2023/06/22 03:00:20;;;;;;;4.13;3.60;;;19.70;99.90;;;;;;4955702;28;20414;-75
2023/06/22 03:02:48;;;;;;;3.95;3.45;;;19.70;99.90;;;;;;4938000;28;22181;-76
2023/06/22 03:05:17;;;;;;;6.40;3.85;;;19.70;99.90;;;;;;4950734;28;20588;-76
2023/06/22 03:07:45;;;;;;;4.73;3.67;;;19.80;99.90;;;;;;4949036;28;20485;-76
2023/06/22 03:10:13;;;;;;;4.80;3.65;;;19.80;99.90;;;;;;4935701;28;20425;-76
2023/06/22 03:12:41;;;;;;;4.27;3.70;;;19.80;99.90;;;;;;4952908;28;20420;-77
2023/06/22 03:15:12;;;;;;;4.30;3.58;;;19.80;99.90;;;;;;4947220;28;20428;-77
2023/06/22 03:17:40;;;;;;;5.97;3.60;;;19.90;99.90;;;;;;4952718;28;20499;-77
2023/06/22 03:20:09;;;;;;;4.60;3.72;;;19.90;99.90;;;;;;4947540;28;20440;-76
2023/06/22 03:22:41;;;;;;;4.97;3.50;;;19.90;99.90;;;;;;4948159;28;20425;-76
2023/06/22 03:25:12;;;;;;;6.57;3.77;;;19.90;99.90;;;;;;4947043;28;20421;-76
2023/06/22 03:27:43;;;;;;;4.07;3.40;;;19.90;99.90;;;;;;4947140;28;20418;-76
2023/06/22 03:30:12;;;;;;;4.68;3.75;;;19.90;99.90;;;;;;4947448;28;21155;-76
2023/06/22 03:32:38;;;;;;;4.53;3.50;;;19.90;99.90;;;;;;4946700;28;20540;-75
2023/06/22 03:35:06;;;;;;;3.97;3.25;;;20.00;99.90;;;;;;4946566;28;20467;-75
2023/06/22 03:37:33;;;;;;;4.30;2.90;;;20.00;99.90;;;;;;4958980;28;20426;-75
2023/06/22 03:39:59;;;;;;;3.08;2.67;;;20.00;99.90;;;;;;4946150;28;20423;-75
2023/06/22 03:42:26;;;;;;;4.78;2.80;;;20.10;99.90;;;;;;5031958;28;20472;-76
2023/06/22 03:44:52;;;;;;;4.78;2.78;;;20.10;99.90;;;;;;4944652;28;20408;-76
2023/06/22 03:47:19;;;;;;;3.42;2.92;;;20.10;99.90;;;;;;4949279;28;20420;-76
2023/06/22 03:49:46;;;;;;;3.97;2.58;;;20.20;99.90;;;;;;4942940;28;20418;-75
2023/06/22 03:52:12;;;;;;;3.78;2.75;;;20.20;99.90;;;;;;4951592;28;20517;-75
2023/06/22 03:54:38;;;;;;;4.07;2.43;;;20.20;99.90;;;;;;4978068;28;20507;-75
2023/06/22 03:57:05;;;;;;;4.82;2.60;;;20.30;99.90;;;;;;4964482;28;20789;-75
2023/06/22 03:59:32;;;;;;;3.90;2.50;;;20.30;99.90;;;;;;4949534;28;20429;-75
2023/06/22 04:01:58;;;;;;;6.32;3.17;;;20.30;99.90;;;;;;4945040;28;20507;-74
2023/06/22 04:04:24;;;;;;;3.20;2.80;;;20.40;99.90;;;;;;4950903;28;20995;-75
2023/06/22 04:06:51;;;;;;;4.70;2.50;;;20.50;99.90;;;;;;4950298;28;20413;-75
2023/06/22 04:09:17;;;;;;;4.45;2.90;;;20.50;99.90;;;;;;4949095;28;20468;-74
2023/06/22 04:11:43;;;;;;;3.92;2.85;;;20.60;99.90;;;;;;4952906;28;20530;-75
2023/06/22 04:14:09;;;;;;;4.97;3.10;;;20.70;99.90;;;;;;4954677;28;20418;-76
2023/06/22 04:16:36;;;;;;;5.20;3.37;;;20.70;99.90;;;;;;4955957;28;20408;-76
2023/06/22 04:19:02;;;;;;;3.45;2.70;;;20.80;99.90;;;;;;4962288;28;20426;-76
2023/06/22 04:21:28;;;;;;;4.55;2.83;;;20.90;99.90;;;;;;4946473;28;20412;-76
2023/06/22 04:23:54;;;;;;;3.25;2.90;;;21.00;99.90;;;;;;4964090;28;20480;-76
2023/06/22 04:26:21;;;;;;;4.25;2.97;;;21.00;99.90;;;;;;4947070;28;20425;-77
2023/06/22 04:28:55;;;;;;;3.60;2.70;;;21.10;99.90;;;;;;4980507;28;20855;-77
2023/06/22 04:31:31;;;;;;;3.47;2.70;;;21.10;99.90;;;;;;4953222;28;20420;-76
2023/06/22 04:34:05;;;;;;;4.63;2.75;;;21.20;99.90;;;;;;4953152;28;20447;-76
2023/06/22 04:36:38;;;;;;;3.72;2.70;;;21.30;99.90;;;;;;4953754;28;20976;-76
2023/06/22 04:39:11;;;;;;;3.33;2.53;;;21.30;99.90;;;;;;4951841;28;20426;-76
2023/06/22 04:41:44;;;;;;;3.40;2.78;;;21.40;99.90;;;;;;4980827;28;20948;-76
2023/06/22 04:44:24;;;;;;;4.13;3.03;;;21.40;99.90;;;;;;4958349;28;21222;-76
2023/06/22 04:47:03;;;;;;;3.47;2.80;;;21.50;99.90;;;;;;4949971;28;20811;-76
2023/06/22 04:49:35;;;;;;;4.90;3.40;;;21.50;99.90;;;;;;4946805;28;20424;-76
2023/06/22 04:52:10;;;;;;;4.50;3.30;;;21.60;99.90;;;;;;5028001;28;20487;-76
2023/06/22 04:54:47;;;;;;;5.13;3.50;;;21.60;99.90;;;;;;4951792;28;20420;-76
2023/06/22 04:57:14;;;;;;;5.32;3.50;;;21.70;99.90;;;;;;4953919;28;20431;-76
2023/06/22 04:59:42;;;;;;;4.70;3.15;;;21.70;99.90;;;;;;4982267;28;20515;-76
2023/06/22 05:02:09;;;;;;;3.30;3.00;;;21.70;99.90;;;;;;4952941;28;20433;-75
2023/06/22 05:04:38;;;;;;;4.70;3.25;;;21.70;99.90;;;;;;4963276;28;20406;-74
2023/06/22 05:07:06;;;;;;;4.60;3.55;;;21.80;99.90;;;;;;4965206;28;20779;-75
2023/06/22 05:09:33;;;;;;;4.40;3.13;;;21.80;99.90;;;;;;4948182;28;20440;-74
2023/06/22 05:12:02;;;;;;;4.68;3.20;;;21.80;99.90;;;;;;4950555;28;20516;-75
2023/06/22 05:14:30;;;;;;;7.43;3.47;;;21.90;99.90;;;;;;4948425;28;20563;-74
2023/06/22 05:17:03;;;;;;;4.20;3.67;;;21.90;99.90;;;;;;4945751;28;20418;-74
2023/06/22 05:19:33;;;;;;;5.07;3.73;;;22.00;99.90;;;;;;4947918;28;20426;-74
2023/06/22 05:21:59;;;;;;;5.40;3.70;;;22.00;99.90;;;;;;4972170;28;20441;-75
2023/06/22 05:24:25;;;;;;;4.03;3.60;;;22.10;99.90;;;;;;4981547;28;20850;-77
2023/06/22 05:26:53;;;;;;;4.63;3.53;;;22.10;99.90;;;;;;4959167;28;20424;-77
2023/06/22 05:29:19;;;;;;;5.25;3.72;;;22.10;99.90;;;;;;4952957;28;20418;-78
2023/06/22 05:31:45;;;;;;;5.00;3.60;;;22.20;99.90;;;;;;4978860;28;20514;-76
2023/06/22 05:34:12;;;;;;;4.18;3.45;;;22.30;99.90;;;;;;4946970;28;20897;-76
2023/06/22 05:36:38;;;;;;;3.90;3.50;;;22.40;99.90;;;;;;4953583;28;20432;-76
2023/06/22 05:39:15;;;;;;;6.20;3.40;;;22.40;99.90;;;;;;4958875;28;20466;-76
2023/06/22 05:41:45;;;;;;;4.45;3.55;;;22.40;99.90;;;;;;4953954;28;20916;-76
2023/06/22 05:44:11;;;;;;;4.82;3.38;;;22.50;99.90;;;;;;4949996;28;20774;-75
2023/06/22 05:46:47;;;;;;;5.18;3.33;;;22.60;99.90;;;;;;4965271;28;20422;-76
2023/06/22 05:49:15;;;;;;;4.38;3.20;;;22.70;99.90;;;;;;4951515;28;20787;-76
2023/06/22 05:51:43;;;;;;;5.80;3.17;;;22.80;99.90;;;;;;4945333;28;21051;-75
2023/06/22 05:54:09;;;;;;;5.75;2.80;;;23.00;99.90;;;;;;4945887;28;20793;-75
2023/06/22 05:56:36;;;;;;;4.50;2.90;;;23.00;99.90;;;;;;4952424;28;20804;-75
2023/06/22 05:59:02;;;;;;;7.07;3.50;;;23.10;99.90;;;;;;4953732;28;20433;-75
2023/06/22 06:01:28;;;;;;;7.05;3.40;;;23.20;99.90;;;;;;4950584;28;20843;-75
2023/06/22 06:03:54;;;;;;;4.32;3.60;;;23.30;99.90;;;;;;4947196;28;20461;-75
2023/06/22 06:06:23;;;;;;;6.50;3.13;;;23.40;99.90;;;;;;4977853;28;20429;-75
2023/06/22 06:08:50;;;;;;;3.85;3.00;;;23.50;99.90;;;;;;4976565;28;20442;-76
2023/06/22 06:11:16;;;;;;;4.88;3.20;;;23.50;99.90;;;;;;4951806;28;20422;-76
2023/06/22 06:13:42;;;;;;;6.95;3.60;;;23.60;99.90;;;;;;4954424;28;20414;-75
2023/06/22 06:16:08;;;;;;;5.10;3.60;;;23.60;99.90;;;;;;4953488;28;20774;-75
2023/06/22 06:18:35;;;;;;;5.43;3.80;;;23.80;99.90;;;;;;4971438;28;20561;-75
2023/06/22 06:21:01;;;;;;;4.90;3.80;;;23.80;99.90;;;;;;4967103;28;20465;-75
2023/06/22 06:23:27;;;;;;;5.67;4.00;;;24.00;99.90;;;;;;4948353;28;20420;-75
2023/06/22 06:25:54;;;;;;;6.03;3.65;;;24.00;99.90;;;;;;4949251;28;20512;-75
2023/06/22 06:28:20;;;;;;;6.47;3.70;;;24.10;99.90;;;;;;4949866;28;20517;-74
2023/06/22 06:30:47;;;;;;;7.38;3.67;;;24.20;99.90;;;;;;4948843;28;20900;-76
2023/06/22 06:33:13;;;;;;;6.05;3.78;;;24.30;99.90;;;;;;4947263;28;20469;-75
2023/06/22 06:35:40;;;;;;;6.20;3.80;;;24.30;99.90;;;;;;4947566;28;20895;-76
2023/06/22 06:38:06;;;;;;;3.90;3.50;;;24.40;99.90;;;;;;4951365;28;20432;-75
2023/06/22 06:40:32;;;;;;;4.95;3.83;;;24.50;99.90;;;;;;4962517;28;21147;-73
2023/06/22 06:42:59;;;;;;;8.15;3.85;;;24.60;99.90;;;;;;4948797;28;20424;-74
2023/06/22 06:45:28;;;;;;;4.20;3.50;;;24.60;99.90;;;;;;4950813;28;20432;-74
2023/06/22 06:47:54;;;;;;;5.30;3.60;;;24.70;99.90;;;;;;4929342;28;20510;-74
2023/06/22 06:50:22;;;;;;;6.25;3.58;;;24.80;99.90;;;;;;4945930;28;20420;-74
2023/06/22 06:52:50;;;;;;;6.15;3.63;;;24.80;99.90;;;;;;4945285;28;20431;-74
2023/06/22 06:55:20;;;;;;;6.55;3.92;;;24.80;99.90;;;;;;4946859;28;20431;-74
2023/06/22 06:57:49;;;;;;;6.67;3.70;;;24.90;99.90;;;;;;4946892;28;20418;-74
2023/06/22 07:00:17;;;;;;;6.15;3.88;;;25.00;99.90;;;;;;4955158;28;20890;-74
2023/06/22 07:02:45;;;;;;;6.05;3.55;;;25.00;99.90;;;;;;4954288;28;20432;-74
2023/06/22 07:05:13;;;;;;;5.85;3.45;;;25.10;99.90;;;;;;4966995;28;20534;-74
2023/06/22 07:07:41;;;;;;;5.43;3.90;;;25.10;99.90;;;;;;4956614;28;20416;-74
2023/06/22 07:10:08;;;;;;;4.13;3.47;;;25.20;99.90;;;;;;4948743;28;21273;-74
2023/06/22 07:12:34;;;;;;;6.53;3.90;;;25.30;99.90;;;;;;4952537;28;20610;-74
2023/06/22 07:15:09;;;;;;;6.20;3.80;;;25.40;99.90;;;;;;4958594;28;20481;-74
2023/06/22 07:17:36;;;;;;;6.80;3.70;;;25.50;99.90;;;;;;4958944;28;20434;-74
2023/06/22 07:20:11;;;;;;;6.38;3.90;;;25.60;99.90;;;;;;4964208;28;20424;-74
2023/06/22 07:22:44;;;;;;;5.80;3.88;;;25.80;99.90;;;;;;4946060;28;20433;-74
2023/06/22 07:25:13;;;;;;;5.93;3.80;;;25.90;99.90;;;;;;4951432;28;20529;-74
2023/06/22 07:27:58;;;;;;;5.70;3.83;;;26.00;99.90;;;;;;4946967;28;20425;-74
2023/06/22 07:30:26;;;;;;;4.28;3.80;;;26.00;99.90;;;;;;4952451;28;20419;-74
2023/06/22 07:32:53;;;;;;;4.70;3.60;;;26.20;99.90;;;;;;4952608;28;20435;-74
2023/06/22 07:35:19;;;;;;;5.38;3.85;;;26.30;99.90;;;;;;4961720;28;20453;-73
2023/06/22 07:37:46;;;;;;;6.25;3.80;;;26.30;99.90;;;;;;4950861;28;20425;-73
2023/06/22 07:40:13;;;;;;;6.10;3.80;;;26.40;99.90;;;;;;4954390;28;20424;-73
2023/06/22 07:42:39;;;;;;;5.38;3.60;;;26.50;99.90;;;;;;4955823;28;20428;-73
2023/06/22 07:45:08;;;;;;;5.68;3.55;;;26.70;99.90;;;;;;4939597;28;20412;-74
2023/06/22 07:47:35;;;;;;;4.80;3.60;;;26.80;99.90;;;;;;4976468;28;20857;-74
2023/06/22 07:50:03;;;;;;;5.50;3.83;;;26.90;99.90;;;;;;4952722;28;21238;-74
2023/06/22 07:52:30;;;;;;;5.80;3.63;;;27.00;99.90;;;;;;4953345;28;20420;-74
2023/06/22 07:54:56;;;;;;;5.45;3.80;;;27.00;99.90;;;;;;4947276;28;20888;-74
2023/06/22 07:57:23;;;;;;;6.60;3.67;;;27.00;99.90;;;;;;4943254;28;20483;-74
2023/06/22 07:59:49;;;;;;;5.63;3.40;;;27.10;99.90;;;;;;4957496;28;20431;-74
2023/06/22 08:02:15;;;;;;;6.65;3.97;;;27.20;99.90;;;;;;4988766;28;20499;-74
2023/06/22 08:04:42;;;;;;;7.35;3.95;;;27.30;99.90;;;;;;4947573;28;20926;-74
2023/06/22 08:07:09;;;;;;;4.63;3.50;;;27.40;99.90;;;;;;4968037;28;20877;-74
2023/06/22 08:09:35;;;;;;;5.97;3.70;;;27.50;99.90;;;;;;4945404;28;21002;-73
2023/06/22 08:12:02;;;;;;;6.38;3.90;;;27.50;99.90;;;;;;4959891;28;20487;-74
2023/06/22 08:14:30;;;;;;;4.68;3.80;;;27.50;99.90;;;;;;4949280;28;20426;-74
2023/06/22 08:16:56;;;;;;;6.32;3.75;;;27.60;99.90;;;;;;4950180;28;20429;-73
2023/06/22 08:19:22;;;;;;;5.32;4.00;;;27.70;99.90;;;;;;4949095;28;20980;-73
2023/06/22 08:21:49;;;;;;;5.80;3.78;;;27.80;99.90;;;;;;4986133;28;20416;-73
2023/06/22 08:24:15;;;;;;;4.13;3.63;;;27.80;99.90;;;;;;4961948;28;20532;-73
2023/06/22 08:26:41;;;;;;;5.97;3.60;;;27.90;99.90;;;;;;4957729;28;20500;-73
2023/06/22 08:29:08;;;;;;;5.27;3.73;;;28.00;99.90;;;;;;4976006;28;20418;-73
2023/06/22 08:31:34;;;;;;;5.33;3.33;;;28.00;99.90;;;;;;4972672;28;20464;-73
2023/06/22 08:34:01;;;;;;;7.50;3.60;;;28.10;99.90;;;;;;4972045;28;21182;-74
2023/06/22 08:36:32;;;;;;;6.30;3.60;;;28.30;99.90;;;;;;4950718;28;20785;-73
2023/06/22 08:39:01;;;;;;;4.88;3.38;;;28.40;99.90;;;;;;4956346;28;20423;-73
2023/06/22 08:41:27;;;;;;;5.15;3.50;;;28.60;99.90;;;;;;4956583;28;20912;-72
2023/06/22 08:43:54;;;;;;;5.03;3.53;;;28.70;99.90;;;;;;4945730;28;20433;-73
2023/06/22 08:46:23;;;;;;;6.72;3.45;;;28.60;99.90;;;;;;4941527;28;20503;-73
2023/06/22 08:48:50;;;;;;;6.40;3.67;;;28.70;99.90;;;;;;4984006;28;20496;-73
2023/06/22 08:51:17;;;;;;;8.60;3.42;;;28.70;99.90;;;;;;4946568;28;20418;-73
2023/06/22 08:53:45;;;;;;;5.20;3.40;;;28.70;99.90;;;;;;4955423;28;20429;-73
2023/06/22 08:56:11;;;;;;;6.57;3.30;;;28.90;99.90;;;;;;4954228;28;21152;-73
2023/06/22 08:58:37;;;;;;;7.50;3.20;;;28.90;99.90;;;;;;4956060;28;21143;-73
2023/06/22 09:01:04;;;;;;;6.90;3.25;;;29.10;99.90;;;;;;4944238;28;20430;-73
2023/06/22 09:03:32;;;;;;;7.32;3.20;;;29.00;99.90;;;;;;4940321;28;21566;-73
2023/06/22 09:05:59;;;;;;;6.47;3.08;;;29.10;99.90;;;;;;4951927;28;20443;-73
2023/06/22 09:08:25;;;;;;;6.78;3.25;;;29.10;99.90;;;;;;4962535;28;20432;-73
2023/06/22 09:10:52;;;;;;;6.22;2.90;;;29.10;99.90;;;;;;4976656;28;20421;-73
2023/06/22 09:13:18;;;;;;;10.43;2.90;;;29.10;99.90;;;;;;4949158;28;20420;-74
2023/06/22 09:15:45;;;;;;;9.88;3.20;;;29.20;99.90;;;;;;4952758;28;20505;-73
2023/06/22 09:18:11;;;;;;;7.80;3.42;;;29.30;99.90;;;;;;4949384;28;20521;-73
2023/06/22 09:20:38;;;;;;;17.40;2.95;;;29.40;99.90;;;;;;4951641;28;20428;-74
2023/06/22 09:23:04;;;;;;;6.30;2.92;;;29.50;99.90;;;;;;4951441;28;20446;-74
2023/06/22 09:25:31;;;;;;;5.55;2.92;;;29.60;99.90;;;;;;4952193;28;20419;-74
2023/06/22 09:27:58;;;;;;;7.88;2.90;;;29.80;99.90;;;;;;4942994;28;20484;-74
2023/06/22 09:30:24;;;;;;;5.18;2.70;;;30.00;99.90;;;;;;4958275;28;20408;-74
2023/06/22 09:32:51;;;;;;;15.32;2.80;;;30.00;99.90;;;;;;4952335;28;20885;-74
2023/06/22 09:35:18;;;;;;;6.07;2.63;;;30.20;99.90;;;;;;4939749;28;20413;-74
2023/06/22 09:37:45;;;;;;;3.53;2.03;;;30.30;99.90;;;;;;4951105;28;20796;-74
2023/06/22 09:40:12;;;;;;;5.13;2.42;;;30.50;99.90;;;;;;4952893;28;21263;-74
2023/06/22 09:42:39;;;;;;;3.95;2.47;;;30.30;99.90;;;;;;4976348;28;20458;-74
2023/06/22 09:45:06;;;;;;;15.68;7.28;;;30.30;99.90;;;;;;4947802;28;20436;-74
2023/06/22 09:47:32;;;;;;;61.55;21.80;;;30.40;99.90;;;;;;4979763;28;20413;-74
2023/06/22 09:49:59;;;;;;;32.72;13.40;;;30.50;99.90;;;;;;4951492;28;20522;-74
2023/06/22 09:52:26;;;;;;;27.58;12.65;;;30.40;99.90;;;;;;4956245;28;20841;-74
2023/06/22 09:54:52;;;;;;;5.07;2.83;;;30.30;99.90;;;;;;4965490;28;20429;-74
2023/06/22 09:57:18;;;;;;;3.88;2.80;;;30.40;99.90;;;;;;4954363;28;20461;-73
2023/06/22 09:59:45;;;;;;;4.03;2.58;;;30.30;99.90;;;;;;4950601;28;20425;-74
2023/06/22 10:02:11;;;;;;;4.82;2.67;;;30.30;99.90;;;;;;4969526;28;20422;-74
2023/06/22 10:04:37;;;;;;;17.92;3.35;;;30.40;99.90;;;;;;4944984;28;20790;-73
2023/06/22 10:07:04;;;;;;;5.95;2.80;;;30.50;99.90;;;;;;4949738;28;20426;-74
2023/06/22 10:09:30;;;;;;;7.13;2.88;;;30.40;99.90;;;;;;4944155;28;20503;-74
2023/06/22 10:11:56;;;;;;;5.95;2.85;;;30.30;99.90;;;;;;4947402;28;20429;-74
2023/06/22 10:14:24;;;;;;;9.73;2.85;;;30.30;99.90;;;;;;4982558;28;20411;-74
2023/06/22 10:16:52;;;;;;;21.83;4.22;;;30.40;99.90;;;;;;4947399;28;20402;-74
2023/06/22 10:19:18;;;;;;;37.72;4.88;;;30.40;99.90;;;;;;4953414;28;20926;-74
2023/06/22 10:21:45;;;;;;;41.45;5.93;;;30.40;99.90;;;;;;4955140;28;20740;-74
2023/06/22 10:24:11;;;;;;;6.05;2.80;;;30.40;99.90;;;;;;4962481;28;20420;-74
2023/06/22 10:26:37;;;;;;;5.00;2.72;;;30.40;99.90;;;;;;4970525;28;20422;-74
2023/06/22 10:29:04;;;;;;;5.20;2.30;;;30.40;99.90;;;;;;4984049;28;20779;-74
2023/06/22 10:31:30;;;;;;;4.32;2.38;;;30.60;99.90;;;;;;4950097;28;20425;-73
2023/06/22 10:33:57;;;;;;;5.80;2.50;;;30.60;99.90;;;;;;4949214;28;20982;-74
2023/06/22 10:36:24;;;;;;;3.78;2.10;;;30.70;99.90;;;;;;4946000;28;20947;-74
2023/06/22 10:38:50;;;;;;;6.97;2.53;;;30.70;99.90;;;;;;4942839;28;20430;-73
2023/06/22 10:41:17;;;;;;;3.95;2.50;;;30.60;99.90;;;;;;4946596;28;20788;-74
2023/06/22 10:43:43;;;;;;;4.73;2.80;;;30.60;99.90;;;;;;4947527;28;20720;-74
2023/06/22 10:46:10;;;;;;;6.40;3.43;;;30.60;99.90;;;;;;4952617;28;20422;-74
2023/06/22 10:48:36;;;;;;;11.32;3.17;;;30.50;99.90;;;;;;4942439;28;20789;-74
2023/06/22 10:51:02;;;;;;;7.38;3.28;;;30.30;99.90;;;;;;4945268;28;20423;-73
2023/06/22 10:53:28;;;;;;;5.50;3.30;;;30.20;99.90;;;;;;4963226;28;20536;-74
2023/06/22 10:55:55;;;;;;;6.28;3.30;;;30.10;99.90;;;;;;4978603;28;21043;-74
2023/06/22 10:58:21;;;;;;;6.65;3.22;;;30.00;99.90;;;;;;4959977;28;20435;-74
2023/06/22 11:00:47;;;;;;;8.38;3.33;;;29.90;99.90;;;;;;4948109;28;20451;-74
2023/06/22 11:03:14;;;;;;;6.22;3.30;;;29.80;99.90;;;;;;4943838;28;20502;-74
2023/06/22 11:05:41;;;;;;;5.57;3.25;;;29.70;99.90;;;;;;4953493;28;20815;-74
2023/06/22 11:08:08;;;;;;;5.15;3.17;;;29.50;99.90;;;;;;4947267;28;20426;-73
2023/06/22 11:10:34;;;;;;;5.22;3.30;;;29.50;99.90;;;;;;4964760;28;21054;-74
2023/06/22 11:13:02;;;;;;;4.53;3.10;;;29.50;99.90;;;;;;4941726;28;20475;-74
2023/06/22 11:15:28;;;;;;;6.55;3.28;;;29.40;99.90;;;;;;4948488;28;20452;-74
2023/06/22 11:17:55;;;;;;;5.03;3.30;;;29.60;99.90;;;;;;4955347;28;20465;-74
2023/06/22 11:20:21;;;;;;;10.43;3.15;;;29.50;99.90;;;;;;4969543;28;20432;-74
2023/06/22 11:22:47;;;;;;;5.90;3.20;;;29.50;99.90;;;;;;4950530;28;20758;-74
2023/06/22 11:25:14;;;;;;;5.35;3.17;;;29.50;99.90;;;;;;4959005;28;20870;-74
2023/06/22 11:27:40;;;;;;;3.95;3.13;;;29.40;99.90;;;;;;4969158;28;20428;-74
2023/06/22 11:30:08;;;;;;;7.63;3.20;;;29.40;99.90;;;;;;4953595;28;20446;-74
2023/06/22 11:32:35;;;;;;;5.93;2.88;;;29.30;99.90;;;;;;4957888;28;20429;-74
2023/06/22 11:35:01;;;;;;;5.53;3.27;;;29.30;99.90;;;;;;4951492;28;20434;-74
2023/06/22 11:37:27;;;;;;;6.03;3.00;;;29.30;99.90;;;;;;4955940;28;20438;-74
2023/06/22 11:39:56;;;;;;;7.00;3.13;;;29.40;99.90;;;;;;4939099;28;20445;-74
2023/06/22 11:42:23;;;;;;;4.72;3.00;;;29.30;99.90;;;;;;4944079;28;20429;-74
2023/06/22 11:44:50;;;;;;;43.53;17.80;;;29.30;99.90;;;;;;4957152;28;20423;-74
2023/06/22 11:47:16;;;;;;;6.20;3.45;;;29.20;99.90;;;;;;4953965;28;21294;-74
2023/06/22 11:49:42;;;;;;;9.02;3.58;;;29.20;99.90;;;;;;4944692;28;21017;-74
2023/06/22 11:52:08;;;;;;;6.40;3.30;;;29.10;99.90;;;;;;4942630;28;20451;-74
2023/06/22 11:54:35;;;;;;;6.38;3.25;;;29.10;99.90;;;;;;4946360;28;20442;-74
2023/06/22 11:57:01;;;;;;;27.93;12.47;;;29.20;99.90;;;;;;4940438;28;20452;-74
2023/06/22 11:59:27;;;;;;;6.22;3.22;;;29.00;99.90;;;;;;4937854;28;20417;-73
2023/06/22 12:01:54;;;;;;;4.65;3.17;;;28.90;99.90;;;;;;4949263;28;20527;-74
2023/06/22 12:04:20;;;;;;;6.82;3.60;;;29.00;99.90;;;;;;4961342;28;20418;-74
2023/06/22 12:06:46;;;;;;;7.82;2.83;;;29.00;99.90;;;;;;4944763;28;20424;-74
2023/06/22 12:09:13;;;;;;;6.35;3.20;;;29.00;99.90;;;;;;4943433;28;20418;-74
2023/06/22 12:11:40;;;;;;;4.97;3.40;;;29.10;99.90;;;;;;4975913;28;20413;-74
2023/06/22 12:14:06;;;;;;;9.82;3.00;;;29.10;99.90;;;;;;4948185;28;20804;-74
2023/06/22 12:16:32;;;;;;;5.68;2.90;;;29.10;99.90;;;;;;4947226;28;20524;-74
2023/06/22 12:18:58;;;;;;;6.57;3.00;;;29.10;99.90;;;;;;4939018;28;20409;-74
2023/06/22 12:21:25;;;;;;;4.53;2.95;;;29.00;99.90;;;;;;4958492;28;21256;-74
2023/06/22 12:23:51;;;;;;;5.40;3.05;;;29.00;99.90;;;;;;4957107;28;20827;-74
2023/06/22 12:26:17;;;;;;;5.38;3.10;;;29.10;99.90;;;;;;4960295;28;20426;-74
2023/06/22 12:28:43;;;;;;;5.88;2.90;;;29.10;99.90;;;;;;4967047;28;20425;-74
2023/06/22 12:31:10;;;;;;;4.90;3.05;;;29.20;99.90;;;;;;4944268;28;20441;-74
2023/06/22 12:33:36;;;;;;;5.82;3.20;;;29.20;99.90;;;;;;4958861;28;20539;-74
2023/06/22 12:36:04;;;;;;;6.78;3.15;;;29.20;99.90;;;;;;4959648;28;20426;-74
2023/06/22 12:38:31;;;;;;;7.88;3.25;;;29.10;99.90;;;;;;4958058;28;20422;-74
2023/06/22 12:40:57;;;;;;;5.75;2.83;;;29.20;99.90;;;;;;4949243;28;20421;-74
2023/06/22 12:43:23;;;;;;;6.03;3.08;;;29.10;99.90;;;;;;4953312;28;20553;-74
2023/06/22 12:45:49;;;;;;;4.35;2.88;;;29.20;99.90;;;;;;4951159;28;20429;-74
2023/06/22 12:48:16;;;;;;;5.47;2.97;;;29.10;99.90;;;;;;4947061;28;20426;-74
2023/06/22 12:50:43;;;;;;;3.90;2.80;;;29.20;99.90;;;;;;4950000;28;20784;-77